createdAt,value
2018-09-15T00:01:27.430Z,26.63
2018-09-15T00:02:05.570Z,26.65
2018-09-15T00:02:43.649Z,26.64
2018-09-15T00:03:21.860Z,26.64
2018-09-15T00:04:00.083Z,26.66
2018-09-15T00:04:38.367Z,26.65
2018-09-15T00:05:16.722Z,26.66
2018-09-15T00:05:55.421Z,26.67
2018-09-15T00:06:33.697Z,26.69
2018-09-15T00:07:12.203Z,26.68
2018-09-15T00:07:50.768Z,26.70
2018-09-15T00:08:29.137Z,26.72
2018-09-15T00:09:07.878Z,26.72
2018-09-15T00:09:46.279Z,26.74
2018-09-15T00:10:24.699Z,26.75
2018-09-15T00:11:02.978Z,26.76
2018-09-15T00:11:41.272Z,26.78
2018-09-15T00:12:19.519Z,26.79
2018-09-15T00:12:57.725Z,26.79
2018-09-15T00:13:35.875Z,26.81
2018-09-15T00:14:14.350Z,26.82
2018-09-15T00:14:52.560Z,26.83
2018-09-15T00:15:30.725Z,26.84
2018-09-15T00:16:08.930Z,26.84
2018-09-15T00:16:46.999Z,26.85
2018-09-15T00:17:25.333Z,26.86
2018-09-15T00:18:05.736Z,26.86
2018-09-15T00:18:45.078Z,26.88
2018-09-15T00:19:23.383Z,26.89
2018-09-15T00:20:01.619Z,26.90
2018-09-15T00:20:40.643Z,26.90
2018-09-15T00:21:18.802Z,26.90
2018-09-15T00:21:56.836Z,26.89
2018-09-15T00:22:35.970Z,26.91
2018-09-15T00:23:15.601Z,26.92
2018-09-15T00:23:53.733Z,26.93
2018-09-15T00:24:31.774Z,26.94
2018-09-15T00:25:10.093Z,26.96
2018-09-15T00:25:48.270Z,26.95
2018-09-15T00:26:26.469Z,26.96
2018-09-15T00:27:04.766Z,26.98
2018-09-15T00:27:42.729Z,26.98
2018-09-15T00:28:20.864Z,26.98
2018-09-15T00:28:59.021Z,26.99
2018-09-15T00:29:37.179Z,27.00
2018-09-15T00:30:15.416Z,27.02
2018-09-15T00:30:53.645Z,27.01
2018-09-15T00:31:32.167Z,27.01
2018-09-15T00:32:10.442Z,27.02
2018-09-15T00:32:48.721Z,27.02
2018-09-15T00:33:26.953Z,27.02
2018-09-15T00:34:05.160Z,27.02
2018-09-15T00:34:43.439Z,27.03
2018-09-15T00:35:21.569Z,27.03
2018-09-15T00:35:59.819Z,27.04
2018-09-15T00:36:38.119Z,27.03
2018-09-15T00:37:16.387Z,27.04
2018-09-15T00:37:54.774Z,27.03
2018-09-15T00:38:32.978Z,27.04
2018-09-15T00:39:14.370Z,27.02
2018-09-15T00:39:52.613Z,27.02
2018-09-15T00:40:31.095Z,27.02
2018-09-15T00:41:09.214Z,27.02
2018-09-15T00:41:47.241Z,27.04
2018-09-15T00:42:25.181Z,27.04
2018-09-15T00:43:03.283Z,27.05
2018-09-15T00:43:41.190Z,27.05
2018-09-15T00:44:19.054Z,27.04
2018-09-15T00:44:57.051Z,27.04
2018-09-15T00:45:35.039Z,27.02
2018-09-15T00:46:13.082Z,26.98
2018-09-15T00:46:50.987Z,27.01
2018-09-15T00:47:29.007Z,27.02
2018-09-15T00:48:07.037Z,27.02
2018-09-15T00:48:45.815Z,27.04
2018-09-15T00:49:23.743Z,27.05
2018-09-15T00:50:01.655Z,27.05
2018-09-15T00:50:39.587Z,27.05
2018-09-15T00:51:17.418Z,27.05
2018-09-15T00:51:55.420Z,27.05
2018-09-15T00:52:33.392Z,27.05
2018-09-15T00:53:11.323Z,27.03
2018-09-15T00:53:49.164Z,27.02
2018-09-15T00:54:27.067Z,27.01
2018-09-15T00:55:05.060Z,27.03
2018-09-15T00:55:43.058Z,27.03
2018-09-15T00:56:20.924Z,27.04
2018-09-15T00:56:58.719Z,27.04
2018-09-15T00:57:36.599Z,27.06
2018-09-15T00:58:14.363Z,27.09
2018-09-15T00:58:52.401Z,27.10
2018-09-15T00:59:30.240Z,27.13
2018-09-15T01:00:09.090Z,27.15
2018-09-15T01:00:47.066Z,27.19
2018-09-15T01:01:26.126Z,27.19
2018-09-15T01:02:04.040Z,27.24
2018-09-15T01:02:41.984Z,27.27
2018-09-15T01:03:19.950Z,27.26
2018-09-15T01:03:57.889Z,27.29
2018-09-15T01:04:35.894Z,27.30
2018-09-15T01:05:13.818Z,27.33
2018-09-15T01:05:51.830Z,27.35
2018-09-15T01:06:29.823Z,27.38
2018-09-15T01:07:07.734Z,27.39
2018-09-15T01:07:45.609Z,27.42
2018-09-15T01:08:23.597Z,27.42
2018-09-15T01:09:02.659Z,27.44
2018-09-15T01:09:40.585Z,27.46
2018-09-15T01:10:18.632Z,27.49
2018-09-15T01:10:56.585Z,27.50
2018-09-15T01:11:34.591Z,27.50
2018-09-15T01:12:12.352Z,27.51
2018-09-15T01:12:50.306Z,27.52
2018-09-15T01:13:28.365Z,27.54
2018-09-15T01:14:06.300Z,27.56
2018-09-15T01:14:44.413Z,27.59
2018-09-15T01:15:22.269Z,27.60
2018-09-15T01:16:00.819Z,27.60
2018-09-15T01:16:38.885Z,27.63
2018-09-15T01:17:16.880Z,27.66
2018-09-15T01:17:54.742Z,27.70
2018-09-15T01:18:32.698Z,27.72
2018-09-15T01:19:10.707Z,27.75
2018-09-15T01:19:48.733Z,27.79
2018-09-15T01:20:26.693Z,27.78
2018-09-15T01:21:04.648Z,27.83
2018-09-15T01:21:42.460Z,27.87
2018-09-15T01:22:20.316Z,27.90
2018-09-15T01:22:58.264Z,27.90
2018-09-15T01:23:36.375Z,27.93
2018-09-15T01:24:14.556Z,27.93
2018-09-15T01:24:53.347Z,27.94
2018-09-15T01:25:31.273Z,27.95
2018-09-15T01:26:09.201Z,27.97
2018-09-15T01:26:47.239Z,28.01
2018-09-15T01:27:25.174Z,28.07
2018-09-15T01:28:03.124Z,28.13
2018-09-15T01:28:41.007Z,28.19
2018-09-15T01:29:18.955Z,28.23
2018-09-15T01:29:56.831Z,28.24
2018-09-15T01:30:34.907Z,28.26
2018-09-15T01:31:13.019Z,28.29
2018-09-15T01:31:50.936Z,28.31
2018-09-15T01:32:30.009Z,28.31
2018-09-15T01:33:08.002Z,28.31
2018-09-15T01:33:46.750Z,28.33
2018-09-15T01:34:24.584Z,28.35
2018-09-15T01:35:02.598Z,28.40
2018-09-15T01:35:40.406Z,28.39
2018-09-15T01:36:18.320Z,28.40
2018-09-15T01:36:56.155Z,28.43
2018-09-15T01:37:34.027Z,28.43
2018-09-15T01:38:11.953Z,28.43
2018-09-15T01:38:49.951Z,28.44
2018-09-15T01:39:27.873Z,28.45
2018-09-15T01:40:07.795Z,28.46
2018-09-15T01:40:45.627Z,28.47
2018-09-15T01:41:23.448Z,28.48
2018-09-15T01:42:01.418Z,28.48
2018-09-15T01:42:39.444Z,28.46
2018-09-15T01:43:17.312Z,28.50
2018-09-15T01:43:55.134Z,28.52
2018-09-15T01:44:33.074Z,28.56
2018-09-15T01:45:11.003Z,28.57
2018-09-15T01:45:48.899Z,28.60
2018-09-15T01:46:26.868Z,28.62
2018-09-15T01:47:04.813Z,28.65
2018-09-15T01:47:42.709Z,28.66
2018-09-15T01:48:20.629Z,28.66
2018-09-15T01:48:58.591Z,28.71
2018-09-15T01:49:37.343Z,28.72
2018-09-15T01:50:16.112Z,28.76
2018-09-15T01:50:53.964Z,28.80
2018-09-15T01:51:32.021Z,28.86
2018-09-15T01:52:10.059Z,28.89
2018-09-15T01:52:48.114Z,28.91
2018-09-15T01:53:26.253Z,28.91
2018-09-15T01:54:04.755Z,28.96
2018-09-15T01:54:42.721Z,28.96
2018-09-15T01:55:20.588Z,28.99
2018-09-15T01:55:58.560Z,29.00
2018-09-15T01:56:36.624Z,29.03
2018-09-15T01:57:14.814Z,29.03
2018-09-15T01:57:52.726Z,29.06
2018-09-15T01:58:30.754Z,29.10
2018-09-15T01:59:09.096Z,29.07
2018-09-15T01:59:46.995Z,29.14
2018-09-15T02:00:25.843Z,29.18
2018-09-15T02:01:03.986Z,29.24
2018-09-15T02:01:41.915Z,29.36
2018-09-15T02:02:19.821Z,29.39
2018-09-15T02:02:57.757Z,29.63
2018-09-15T02:03:35.764Z,29.70
2018-09-15T02:04:13.898Z,29.68
2018-09-15T02:04:52.166Z,29.69
2018-09-15T02:05:30.184Z,29.77
2018-09-15T02:06:08.100Z,29.98
2018-09-15T02:06:46.032Z,30.01
2018-09-15T02:07:23.857Z,30.15
2018-09-15T02:08:03.660Z,30.24
2018-09-15T02:08:41.779Z,30.38
2018-09-15T02:09:19.713Z,30.56
2018-09-15T02:09:57.939Z,30.70
2018-09-15T02:10:35.955Z,30.87
2018-09-15T02:11:13.863Z,30.98
2018-09-15T02:11:51.982Z,31.10
2018-09-15T02:12:29.887Z,31.22
2018-09-15T02:13:07.848Z,31.32
2018-09-15T02:13:45.787Z,31.43
2018-09-15T02:14:23.731Z,31.50
2018-09-15T02:16:05.738Z,31.39
2018-09-15T02:16:43.649Z,31.41
2018-09-15T02:17:21.560Z,31.45
2018-09-15T02:17:59.458Z,31.47
2018-09-15T02:18:37.438Z,31.49
2018-09-15T02:19:15.427Z,31.48
2018-09-15T02:19:53.222Z,31.51
2018-09-15T02:20:31.380Z,31.51
2018-09-15T02:21:09.266Z,31.49
2018-09-15T02:21:47.206Z,31.47
2018-09-15T02:22:25.407Z,31.42
2018-09-15T02:23:03.443Z,31.34
2018-09-15T02:23:41.540Z,31.30
2018-09-15T02:24:20.333Z,31.26
2018-09-15T02:24:58.266Z,31.22
2018-09-15T02:25:36.577Z,31.14
2018-09-15T02:26:14.547Z,31.12
2018-09-15T02:26:52.477Z,31.09
2018-09-15T02:27:30.531Z,31.07
2018-09-15T02:28:08.467Z,31.11
2018-09-15T02:28:46.664Z,31.15
2018-09-15T02:29:24.540Z,31.19
2018-09-15T02:30:03.698Z,31.25
2018-09-15T02:30:41.586Z,31.32
2018-09-15T02:31:19.544Z,31.34
2018-09-15T02:31:57.363Z,31.30
2018-09-15T02:32:35.262Z,31.25
2018-09-15T02:33:13.062Z,31.23
2018-09-15T02:33:51.016Z,31.20
2018-09-15T02:34:28.986Z,31.21
2018-09-15T02:35:12.943Z,31.23
2018-09-15T02:35:50.802Z,31.23
2018-09-15T02:36:28.893Z,31.26
2018-09-15T02:37:06.857Z,31.28
2018-09-15T02:37:44.847Z,31.31
2018-09-15T02:38:22.789Z,31.39
2018-09-15T02:39:00.696Z,31.47
2018-09-15T02:39:38.531Z,31.56
2018-09-15T02:40:16.639Z,31.63
2018-09-15T02:40:54.662Z,31.65
2018-09-15T02:41:32.514Z,31.66
2018-09-15T02:42:11.614Z,31.65
2018-09-15T02:42:49.449Z,31.61
2018-09-15T02:43:27.393Z,31.58
2018-09-15T02:44:05.289Z,31.54
2018-09-15T02:44:43.338Z,31.48
2018-09-15T02:45:21.360Z,31.44
2018-09-15T02:45:59.629Z,31.42
2018-09-15T02:46:37.543Z,31.38
2018-09-15T02:47:15.459Z,31.37
2018-09-15T02:47:53.414Z,31.35
2018-09-15T02:48:31.351Z,31.32
2018-09-15T02:49:09.367Z,31.32
2018-09-15T02:49:47.329Z,31.31
2018-09-15T02:50:25.461Z,31.28
2018-09-15T02:51:03.438Z,31.29
2018-09-15T02:51:41.430Z,31.23
2018-09-15T02:52:19.364Z,31.31
2018-09-15T02:52:57.231Z,31.42
2018-09-15T02:53:35.081Z,31.48
2018-09-15T02:54:13.088Z,31.51
2018-09-15T02:54:51.376Z,31.47
2018-09-15T02:55:29.937Z,31.44
2018-09-15T02:56:07.897Z,31.42
2018-09-15T02:56:45.945Z,31.37
2018-09-15T02:57:24.687Z,31.32
2018-09-15T02:58:02.793Z,31.31
2018-09-15T02:58:40.749Z,31.28
2018-09-15T02:59:18.910Z,31.28
2018-09-15T02:59:56.985Z,31.31
2018-09-15T03:00:35.575Z,31.31
2018-09-15T03:01:13.495Z,31.36
2018-09-15T03:01:51.632Z,31.43
2018-09-15T03:02:29.753Z,31.52
2018-09-15T03:03:07.971Z,31.53
2018-09-15T03:03:47.735Z,31.59
2018-09-15T03:04:27.559Z,31.61
2018-09-15T03:05:05.981Z,31.61
2018-09-15T03:05:44.283Z,31.63
2018-09-15T03:06:22.725Z,31.63
2018-09-15T03:07:01.185Z,31.64
2018-09-15T03:07:40.231Z,31.64
2018-09-15T03:08:19.207Z,31.74
2018-09-15T03:08:57.762Z,32.07
2018-09-15T03:09:36.320Z,32.36
2018-09-15T03:10:14.677Z,32.56
2018-09-15T03:10:53.253Z,32.76
2018-09-15T03:11:31.535Z,32.98
2018-09-15T03:12:10.198Z,33.17
2018-09-15T03:12:49.924Z,33.30
2018-09-15T03:13:28.235Z,33.32
2018-09-15T03:14:06.605Z,33.20
2018-09-15T03:14:44.895Z,33.11
2018-09-15T03:15:23.157Z,33.04
2018-09-15T03:16:01.234Z,33.01
2018-09-15T03:16:39.688Z,32.88
2018-09-15T03:17:18.529Z,32.90
2018-09-15T03:17:56.692Z,32.89
2018-09-15T03:18:34.742Z,32.83
2018-09-15T03:19:12.897Z,32.82
2018-09-15T03:19:52.133Z,32.81
2018-09-15T03:20:30.380Z,32.65
2018-09-15T03:21:08.989Z,32.61
2018-09-15T03:21:47.113Z,32.72
2018-09-15T03:22:24.992Z,32.86
2018-09-15T03:23:02.888Z,33.08
2018-09-15T03:23:40.922Z,33.27
2018-09-15T03:24:18.759Z,33.41
2018-09-15T03:24:56.692Z,33.53
2018-09-15T03:25:34.549Z,33.63
2018-09-15T03:26:12.486Z,33.70
2018-09-15T03:26:50.455Z,33.78
2018-09-15T03:27:28.304Z,33.83
2018-09-15T03:28:06.171Z,33.87
2018-09-15T03:28:44.386Z,33.88
2018-09-15T03:29:22.348Z,33.90
2018-09-15T03:30:00.347Z,33.94
2018-09-15T03:30:38.119Z,33.92
2018-09-15T03:31:15.939Z,33.94
2018-09-15T03:31:53.889Z,33.88
2018-09-15T03:32:31.930Z,33.80
2018-09-15T03:33:09.812Z,33.74
2018-09-15T03:33:48.082Z,33.65
2018-09-15T03:34:25.899Z,33.57
2018-09-15T03:35:03.863Z,33.49
2018-09-15T03:35:41.764Z,33.47
2018-09-15T03:36:19.756Z,33.45
2018-09-15T03:36:57.741Z,33.40
2018-09-15T03:37:35.636Z,33.38
2018-09-15T03:38:13.712Z,33.32
2018-09-15T03:38:51.900Z,33.25
2018-09-15T03:39:29.835Z,33.16
2018-09-15T03:40:07.848Z,33.09
2018-09-15T03:40:45.751Z,33.11
2018-09-15T03:41:23.766Z,33.16
2018-09-15T03:42:01.919Z,33.27
2018-09-15T03:42:39.986Z,33.27
2018-09-15T03:43:19.759Z,33.23
2018-09-15T03:43:57.693Z,33.31
2018-09-15T03:44:35.588Z,33.43
2018-09-15T03:45:13.598Z,33.54
2018-09-15T03:45:52.362Z,33.60
2018-09-15T03:46:31.375Z,33.66
2018-09-15T03:47:09.647Z,33.68
2018-09-15T03:47:47.779Z,33.69
2018-09-15T03:48:25.775Z,33.52
2018-09-15T03:49:03.705Z,33.34
2018-09-15T03:49:41.491Z,33.12
2018-09-15T03:50:19.624Z,32.94
2018-09-15T03:50:57.523Z,32.77
2018-09-15T03:51:35.431Z,32.64
2018-09-15T03:52:13.295Z,32.51
2018-09-15T03:52:51.136Z,32.38
2018-09-15T03:53:29.116Z,32.26
2018-09-15T03:54:07.113Z,32.15
2018-09-15T03:54:44.998Z,32.03
2018-09-15T03:55:23.016Z,31.95
2018-09-15T03:56:01.244Z,31.88
2018-09-15T03:56:39.216Z,31.78
2018-09-15T03:57:17.185Z,31.70
2018-09-15T03:57:55.156Z,31.65
2018-09-15T03:58:33.069Z,31.55
2018-09-15T03:59:11.842Z,31.44
2018-09-15T03:59:49.824Z,31.38
2018-09-15T04:00:27.811Z,31.31
2018-09-15T04:01:05.848Z,31.22
2018-09-15T04:01:44.435Z,31.13
2018-09-15T04:02:22.353Z,31.03
2018-09-15T04:03:00.393Z,30.93
2018-09-15T04:03:38.407Z,30.87
2018-09-15T04:04:16.854Z,30.81
2018-09-15T04:04:54.959Z,30.75
2018-09-15T04:05:32.874Z,30.68
2018-09-15T04:06:10.897Z,30.62
2018-09-15T04:06:49.018Z,30.59
2018-09-15T04:07:26.845Z,30.56
2018-09-15T04:08:04.762Z,30.49
2018-09-15T04:08:42.769Z,30.44
2018-09-15T04:09:20.694Z,30.42
2018-09-15T04:09:58.569Z,30.37
2018-09-15T04:10:36.478Z,30.32
2018-09-15T04:11:17.250Z,30.30
2018-09-15T04:11:55.272Z,30.27
2018-09-15T04:12:33.339Z,30.24
2018-09-15T04:13:11.403Z,30.22
2018-09-15T04:13:49.513Z,30.18
2018-09-15T04:14:27.566Z,30.14
2018-09-15T04:15:05.612Z,30.08
2018-09-15T04:15:43.715Z,30.05
2018-09-15T04:16:21.572Z,29.99
2018-09-15T04:16:59.615Z,29.96
2018-09-15T04:17:37.469Z,29.84
2018-09-15T04:18:19.904Z,29.83
2018-09-15T04:18:58.133Z,29.78
2018-09-15T04:19:36.122Z,29.75
2018-09-15T04:20:15.038Z,29.73
2018-09-15T04:20:52.980Z,29.70
2018-09-15T04:21:30.874Z,29.62
2018-09-15T04:22:08.736Z,29.63
2018-09-15T04:22:46.885Z,29.60
2018-09-15T04:23:24.868Z,29.55
2018-09-15T04:24:03.740Z,29.51
2018-09-15T04:24:41.790Z,29.46
2018-09-15T04:25:19.813Z,29.36
2018-09-15T04:25:57.765Z,29.28
2018-09-15T04:26:36.443Z,29.19
2018-09-15T04:27:14.384Z,29.12
2018-09-15T04:27:52.339Z,29.07
2018-09-15T04:28:30.220Z,28.99
2018-09-15T04:29:08.173Z,28.93
2018-09-15T04:29:46.347Z,28.78
2018-09-15T04:30:24.403Z,28.59
2018-09-15T04:31:02.205Z,28.39
2018-09-15T04:31:40.188Z,28.29
2018-09-15T04:32:19.242Z,28.11
2018-09-15T04:32:57.115Z,28.05
2018-09-15T04:33:35.026Z,27.98
2018-09-15T04:34:13.038Z,27.91
2018-09-15T04:34:51.002Z,27.89
2018-09-15T04:35:29.968Z,27.83
2018-09-15T04:36:07.927Z,27.73
2018-09-15T04:36:45.906Z,27.68
2018-09-15T04:37:23.885Z,27.60
2018-09-15T04:38:01.858Z,27.58
2018-09-15T04:38:39.901Z,27.51
2018-09-15T04:39:18.018Z,27.44
2018-09-15T04:39:56.832Z,27.39
2018-09-15T04:40:34.746Z,27.33
2018-09-15T04:41:12.831Z,27.25
2018-09-15T04:41:50.732Z,27.24
2018-09-15T04:42:28.740Z,27.19
2018-09-15T04:43:06.700Z,27.13
2018-09-15T04:43:44.613Z,27.07
2018-09-15T04:45:05.705Z,27.02
2018-09-15T04:45:43.579Z,27.03
2018-09-15T04:46:21.851Z,27.01
2018-09-15T04:46:59.923Z,27.01
2018-09-15T04:47:37.776Z,26.92
2018-09-15T04:48:16.606Z,26.93
2018-09-15T04:48:54.435Z,26.90
2018-09-15T04:49:32.255Z,26.88
2018-09-15T04:50:10.114Z,26.83
2018-09-15T04:50:48.091Z,26.81
2018-09-15T04:51:26.318Z,26.78
2018-09-15T04:52:04.135Z,26.73
2018-09-15T04:52:42.070Z,26.71
2018-09-15T04:53:20.837Z,26.71
2018-09-15T04:53:58.819Z,26.67
2018-09-15T04:54:36.681Z,26.67
2018-09-15T04:55:14.652Z,26.68
2018-09-15T04:55:52.613Z,26.66
2018-09-15T04:56:30.858Z,26.67
2018-09-15T04:57:08.814Z,26.68
2018-09-15T04:57:46.803Z,26.67
2018-09-15T04:58:24.792Z,26.68
2018-09-15T04:59:02.608Z,26.70
2018-09-15T04:59:40.575Z,26.72
2018-09-15T05:00:18.570Z,26.72
2018-09-15T05:00:56.610Z,26.73
2018-09-15T05:01:35.378Z,26.73
2018-09-15T05:02:13.374Z,26.74
2018-09-15T05:02:51.420Z,26.75
2018-09-15T05:03:29.577Z,26.74
2018-09-15T05:04:07.601Z,26.74
2018-09-15T05:04:45.495Z,26.73
2018-09-15T05:05:23.327Z,26.73
2018-09-15T05:06:01.261Z,26.73
2018-09-15T05:06:39.261Z,26.74
2018-09-15T05:07:17.321Z,26.76
2018-09-15T05:07:56.081Z,26.78
2018-09-15T05:08:34.254Z,26.79
2018-09-15T05:09:14.554Z,26.81
2018-09-15T05:09:52.712Z,26.82
2018-09-15T05:10:30.709Z,26.83
2018-09-15T05:11:08.594Z,26.82
2018-09-15T05:11:46.565Z,26.83
2018-09-15T05:12:24.670Z,26.82
2018-09-15T05:13:02.747Z,26.81
2018-09-15T05:13:40.622Z,26.84
2018-09-15T05:14:18.652Z,26.84
2018-09-15T05:14:56.515Z,26.83
2018-09-15T05:15:34.477Z,26.85
2018-09-15T05:16:12.351Z,26.85
2018-09-15T05:16:50.253Z,26.84
2018-09-15T05:17:28.136Z,26.84
2018-09-15T05:18:06.116Z,26.83
2018-09-15T05:18:43.902Z,26.82
2018-09-15T05:19:21.834Z,26.84
2018-09-15T05:19:59.708Z,26.86
2018-09-15T05:20:37.568Z,26.84
2018-09-15T05:21:15.481Z,26.85
2018-09-15T05:21:53.482Z,26.86
2018-09-15T05:22:31.303Z,26.86
2018-09-15T05:23:09.804Z,26.86
2018-09-15T05:23:47.689Z,26.88
2018-09-15T05:24:26.329Z,26.88
2018-09-15T05:25:04.267Z,26.90
2018-09-15T05:25:42.381Z,26.87
2018-09-15T05:26:20.346Z,26.89
2018-09-15T05:26:58.313Z,26.91
2018-09-15T05:27:36.466Z,26.93
2018-09-15T05:28:14.270Z,26.93
2018-09-15T05:28:52.142Z,26.93
2018-09-15T05:29:30.172Z,26.95
2018-09-15T05:30:08.450Z,26.97
2018-09-15T05:30:46.253Z,26.99
2018-09-15T05:31:24.227Z,27.00
2018-09-15T05:32:02.928Z,27.02
2018-09-15T05:32:40.772Z,27.03
2018-09-15T05:33:18.704Z,27.05
2018-09-15T05:33:56.716Z,27.08
2018-09-15T05:34:34.606Z,27.04
2018-09-15T05:35:12.515Z,27.08
2018-09-15T05:35:50.419Z,27.10
2018-09-15T05:36:28.967Z,27.09
2018-09-15T05:37:06.910Z,27.11
2018-09-15T05:37:44.728Z,27.15
2018-09-15T05:38:22.820Z,27.17
2018-09-15T05:39:00.724Z,27.16
2018-09-15T05:39:38.628Z,27.20
2018-09-15T05:40:17.464Z,27.23
2018-09-15T05:40:56.435Z,27.25
2018-09-15T05:41:34.269Z,27.28
2018-09-15T05:42:12.258Z,27.33
2018-09-15T05:42:50.205Z,27.37
2018-09-15T05:43:28.510Z,27.38
2018-09-15T05:44:06.470Z,27.41
2018-09-15T05:44:44.349Z,27.45
2018-09-15T05:45:22.346Z,27.45
2018-09-15T05:46:00.177Z,27.46
2018-09-15T05:46:38.015Z,27.45
2018-09-15T05:47:15.906Z,27.48
2018-09-15T05:47:56.088Z,27.52
2018-09-15T05:48:34.084Z,27.54
2018-09-15T05:49:12.405Z,27.56
2018-09-15T05:49:50.315Z,27.59
2018-09-15T05:50:28.317Z,27.62
2018-09-15T05:51:06.159Z,27.62
2018-09-15T05:51:43.958Z,27.68
2018-09-15T05:52:21.958Z,27.67
2018-09-15T05:52:59.989Z,27.66
2018-09-15T05:53:38.298Z,27.68
2018-09-15T05:54:16.406Z,27.71
2018-09-15T05:54:54.558Z,27.75
2018-09-15T05:55:32.538Z,27.79
2018-09-15T05:56:10.435Z,27.79
2018-09-15T05:56:48.382Z,27.81
2018-09-15T05:57:26.340Z,27.81
2018-09-15T05:58:06.155Z,27.86
2018-09-15T05:58:44.211Z,27.88
2018-09-15T05:59:22.268Z,27.90
2018-09-15T06:00:00.104Z,27.92
2018-09-15T06:00:38.154Z,27.97
2018-09-15T06:01:16.249Z,27.97
2018-09-15T06:01:54.203Z,27.93
2018-09-15T06:02:32.083Z,27.93
2018-09-15T06:03:09.979Z,27.93
2018-09-15T06:03:48.009Z,27.95
2018-09-15T06:04:26.032Z,27.96
2018-09-15T06:05:03.847Z,27.98
2018-09-15T06:05:41.812Z,28.03
2018-09-15T06:06:20.062Z,28.06
2018-09-15T06:06:58.126Z,28.09
2018-09-15T06:07:36.204Z,28.07
2018-09-15T06:08:14.236Z,28.06
2018-09-15T06:08:52.324Z,28.08
2018-09-15T06:09:30.129Z,28.10
2018-09-15T06:10:08.250Z,28.15
2018-09-15T06:10:46.499Z,28.25
2018-09-15T06:11:24.418Z,28.30
2018-09-15T06:12:02.556Z,28.36
2018-09-15T06:12:40.548Z,28.40
2018-09-15T06:13:18.499Z,28.50
2018-09-15T06:13:56.538Z,28.58
2018-09-15T06:14:35.416Z,28.50
2018-09-15T06:15:13.472Z,28.53
2018-09-15T06:15:51.621Z,28.55
2018-09-15T06:16:29.484Z,28.62
2018-09-15T06:17:07.265Z,28.65
2018-09-15T06:17:45.142Z,28.64
2018-09-15T06:18:23.065Z,28.73
2018-09-15T06:19:00.877Z,28.70
2018-09-15T06:19:39.695Z,28.68
2018-09-15T06:20:17.472Z,28.70
2018-09-15T06:20:55.327Z,28.75
2018-09-15T06:21:33.547Z,28.74
2018-09-15T06:22:11.349Z,28.69
2018-09-15T06:22:49.224Z,28.78
2018-09-15T06:23:27.050Z,28.80
2018-09-15T06:24:05.211Z,28.86
2018-09-15T06:24:43.089Z,28.90
2018-09-15T06:25:20.933Z,28.90
2018-09-15T06:25:58.931Z,28.98
2018-09-15T06:26:37.613Z,29.00
2018-09-15T06:27:15.590Z,29.11
2018-09-15T06:27:53.810Z,29.22
2018-09-15T06:28:31.866Z,29.29
2018-09-15T06:29:09.847Z,29.31
2018-09-15T06:29:47.836Z,29.39
2018-09-15T06:30:25.798Z,29.41
2018-09-15T06:31:03.864Z,29.47
2018-09-15T06:31:42.006Z,29.49
2018-09-15T06:32:19.872Z,29.69
2018-09-15T06:32:57.696Z,29.70
2018-09-15T06:33:35.768Z,29.69
2018-09-15T06:34:13.633Z,29.68
2018-09-15T06:34:52.623Z,29.67
2018-09-15T06:35:30.848Z,29.66
2018-09-15T06:36:08.601Z,29.64
2018-09-15T06:36:46.468Z,29.61
2018-09-15T06:37:24.455Z,29.62
2018-09-15T06:38:02.287Z,29.62
2018-09-15T06:38:40.185Z,29.57
2018-09-15T06:39:18.147Z,29.55
2018-09-15T06:39:56.038Z,29.46
2018-09-15T06:40:34.141Z,29.49
2018-09-15T06:41:12.158Z,29.47
2018-09-15T06:41:50.046Z,29.42
2018-09-15T06:42:28.026Z,29.41
2018-09-15T06:43:06.128Z,29.37
2018-09-15T06:43:44.031Z,29.33
2018-09-15T06:44:21.887Z,29.34
2018-09-15T06:45:00.179Z,29.32
2018-09-15T06:45:38.198Z,29.32
2018-09-15T06:46:16.866Z,29.30
2018-09-15T06:46:54.682Z,29.25
2018-09-15T06:47:32.751Z,29.31
2018-09-15T06:48:10.829Z,29.30
2018-09-15T06:48:48.822Z,29.27
2018-09-15T06:49:26.731Z,29.23
2018-09-15T06:50:04.787Z,29.24
2018-09-15T06:50:42.672Z,29.25
2018-09-15T06:51:20.626Z,29.16
2018-09-15T06:51:58.590Z,29.08
2018-09-15T06:52:36.426Z,29.13
2018-09-15T06:53:14.463Z,29.16
2018-09-15T06:53:52.539Z,29.16
2018-09-15T06:54:30.589Z,29.14
2018-09-15T06:55:08.552Z,29.17
2018-09-15T06:55:46.575Z,29.18
2018-09-15T06:56:24.596Z,29.19
2018-09-15T06:57:02.522Z,29.19
2018-09-15T06:57:40.541Z,29.14
2018-09-15T06:58:18.379Z,29.14
2018-09-15T06:58:56.794Z,29.10
2018-09-15T06:59:34.760Z,29.09
2018-09-15T07:00:17.088Z,29.03
2018-09-15T07:00:55.125Z,29.05
2018-09-15T07:02:33.419Z,28.99
2018-09-15T07:03:11.448Z,29.01
2018-09-15T07:03:49.353Z,28.98
2018-09-15T07:04:27.315Z,28.96
2018-09-15T07:05:05.273Z,28.94
2018-09-15T07:05:43.206Z,28.92
2018-09-15T07:06:22.044Z,28.92
2018-09-15T07:06:59.902Z,28.93
2018-09-15T07:07:37.963Z,28.86
2018-09-15T07:11:17.688Z,28.89
2018-09-15T07:11:55.547Z,28.92
2018-09-15T07:12:33.531Z,28.93
2018-09-15T07:13:11.700Z,28.92
2018-09-15T07:13:49.549Z,28.93
2018-09-15T07:14:27.351Z,28.92
2018-09-15T07:15:05.164Z,28.93
2018-09-15T07:15:43.110Z,28.96
2018-09-15T07:16:21.105Z,28.96
2018-09-15T07:16:59.759Z,28.95
2018-09-15T07:17:37.741Z,28.98
2018-09-15T07:18:15.706Z,29.00
2018-09-15T07:18:53.681Z,29.02
2018-09-15T07:19:31.923Z,29.00
2018-09-15T07:20:10.339Z,29.06
2018-09-15T07:20:49.836Z,29.08
2018-09-15T07:21:27.678Z,29.11
2018-09-15T07:22:05.527Z,29.10
2018-09-15T07:22:43.392Z,29.10
2018-09-15T07:23:21.258Z,29.13
2018-09-15T07:23:59.204Z,29.15
2018-09-15T07:24:36.964Z,29.20
2018-09-15T07:25:14.782Z,29.24
2018-09-15T07:25:52.686Z,29.26
2018-09-15T07:26:30.646Z,29.31
2018-09-15T07:27:10.428Z,29.34
2018-09-15T07:27:49.112Z,29.37
2018-09-15T07:28:27.341Z,29.38
2018-09-15T07:29:05.250Z,29.42
2018-09-15T07:29:43.200Z,29.44
2018-09-15T07:30:21.215Z,29.45
2018-09-15T07:30:58.992Z,29.48
2018-09-15T07:31:37.017Z,29.48
2018-09-15T07:32:15.175Z,29.52
2018-09-15T07:32:53.080Z,29.53
2018-09-15T07:33:31.024Z,29.55
2018-09-15T07:34:09.165Z,29.62
2018-09-15T07:34:47.071Z,29.63
2018-09-15T07:35:25.033Z,29.66
2018-09-15T07:36:02.947Z,29.62
2018-09-15T07:36:40.878Z,29.68
2018-09-15T07:37:18.759Z,29.68
2018-09-15T07:37:57.078Z,29.69
2018-09-15T07:38:35.016Z,29.68
2018-09-15T07:39:14.370Z,29.67
2018-09-15T07:39:52.192Z,29.62
2018-09-15T07:40:30.260Z,29.63
2018-09-15T07:41:09.042Z,29.64
2018-09-15T07:41:46.896Z,29.60
2018-09-15T07:42:24.896Z,29.64
2018-09-15T07:43:03.080Z,29.57
2018-09-15T07:43:41.122Z,29.63
2018-09-15T07:44:18.927Z,29.63
2018-09-15T07:44:56.866Z,29.62
2018-09-15T07:45:34.683Z,29.64
2018-09-15T07:46:12.669Z,29.68
2018-09-15T07:46:50.540Z,29.69
2018-09-15T07:47:28.402Z,29.68
2018-09-15T07:48:06.444Z,29.70
2018-09-15T07:48:44.504Z,29.76
2018-09-15T07:49:22.472Z,29.76
2018-09-15T07:50:00.421Z,29.79
2018-09-15T07:50:38.354Z,29.82
2018-09-15T07:51:16.641Z,29.83
2018-09-15T07:51:54.455Z,29.87
2018-09-15T07:52:32.282Z,29.86
2018-09-15T07:53:10.169Z,29.94
2018-09-15T07:53:48.197Z,29.95
2018-09-15T07:54:26.081Z,29.94
2018-09-15T07:55:04.128Z,29.97
2018-09-15T07:55:42.893Z,29.93
2018-09-15T07:56:21.104Z,29.91
2018-09-15T07:56:58.952Z,29.90
2018-09-15T07:57:36.905Z,29.89
2018-09-15T07:58:15.099Z,29.89
2018-09-15T07:58:53.061Z,29.88
2018-09-15T07:59:30.960Z,29.88
2018-09-15T08:00:09.102Z,29.85
2018-09-15T08:00:47.241Z,29.85
2018-09-15T08:01:25.179Z,29.86
2018-09-15T08:02:03.508Z,29.87
2018-09-15T08:02:41.411Z,29.83
2018-09-15T08:03:19.328Z,29.85
2018-09-15T08:03:57.377Z,29.85
2018-09-15T08:04:35.416Z,29.86
2018-09-15T08:05:13.278Z,29.84
2018-09-15T08:05:51.305Z,29.86
2018-09-15T08:06:29.189Z,29.88
2018-09-15T08:07:07.252Z,29.90
2018-09-15T08:07:45.079Z,29.93
2018-09-15T08:08:23.038Z,29.95
2018-09-15T08:09:01.036Z,29.98
2018-09-15T08:09:38.979Z,30.07
2018-09-15T08:10:16.916Z,30.14
2018-09-15T08:10:54.827Z,30.20
2018-09-15T08:11:32.900Z,30.18
2018-09-15T08:12:10.020Z,30.16
2018-09-15T08:12:48.066Z,30.14
2018-09-15T08:13:26.031Z,30.13
2018-09-15T08:14:03.963Z,30.11
2018-09-15T08:14:41.840Z,30.10
2018-09-15T08:15:19.686Z,30.07
2018-09-15T08:15:57.594Z,30.03
2018-09-15T08:16:35.587Z,30.03
2018-09-15T08:17:13.535Z,30.02
2018-09-15T08:17:51.552Z,30.01